This is the latest recevied weather packets stored in our database for station/object EA5FOG-11. If no packets are shown the sender has not sent any weather packets the latest 10 day(s).
| Time | Temp. | Humidity | Pressure | Rain* | Wind** | Luminosity | Snow |
|---|---|---|---|---|---|---|---|
| 1777587158 | 18.33° C | 57% | 960.2 hPa | - | - | - | - |
| 1777586257 | 18.33° C | 57% | 960.1 hPa | - | - | - | - |
| 1777585357 | 18.33° C | 57% | 960 hPa | - | - | - | - |
| 1777584456 | 18.89° C | 56% | 960 hPa | - | - | - | - |
| 1777583555 | 18.89° C | 56% | 959.9 hPa | - | - | - | - |
| 1777582654 | 18.89° C | 56% | 959.7 hPa | - | - | - | - |
| 1777581753 | 18.89° C | 56% | 959.6 hPa | - | - | - | - |
| 1777580853 | 18.89° C | 55% | 959.4 hPa | - | - | - | - |
| 1777579952 | 18.89° C | 55% | 959.3 hPa | - | - | - | - |
| 1777579049 | 18.89° C | 55% | 959 hPa | - | - | - | - |
| 1777578148 | 18.89° C | 55% | 958.6 hPa | - | - | - | - |
| 1777576365 | 18.89° C | 54% | 958.1 hPa | - | - | - | - |
| 1777575464 | 18.89° C | 54% | 958 hPa | - | - | - | - |
| 1777574564 | 19.44° C | 53% | 957.7 hPa | - | - | - | - |
| 1777573663 | 20° C | 52% | 957.5 hPa | - | - | - | - |
| 1777572762 | 20° C | 52% | 957.6 hPa | - | - | - | - |
| 1777571861 | 20.56° C | 51% | 957.4 hPa | - | - | - | - |
| 1777570960 | 22.22° C | 49% | 957.2 hPa | - | - | - | - |
| 1777570059 | 26.11° C | 45% | 957.3 hPa | - | - | - | - |
| 1777569159 | 24.44° C | 47% | 957.2 hPa | - | - | - | - |
| 1777568258 | 23.33° C | 48% | 957.1 hPa | - | - | - | - |
| 1777567357 | 25.56° C | 45% | 957 hPa | - | - | - | - |
| 1777566456 | 26.67° C | 44% | 956.7 hPa | - | - | - | - |
| 1777565556 | 30° C | 41% | 956.7 hPa | - | - | - | - |
| 1777564655 | 30° C | 41% | 956.7 hPa | - | - | - | - |
* Rain since midnight (hover to see other rain measurements)
** Current wind speed in m/s (hover to see current wind gust speed)